createdAt,value
2023-03-10T00:01:35.024Z,2.45
2023-03-10T00:04:04.646Z,2.35
2023-03-10T00:06:35.598Z,3.33
2023-03-10T00:09:05.041Z,3.92
2023-03-10T00:11:35.361Z,3.40
2023-03-10T00:14:04.571Z,3.67
2023-03-10T00:16:33.557Z,2.20
2023-03-10T00:19:02.636Z,1.85
2023-03-10T00:21:33.149Z,4.55
2023-03-10T00:24:03.258Z,5.78
2023-03-10T00:26:32.180Z,3.10
2023-03-10T00:29:02.502Z,4.15
2023-03-10T00:31:32.548Z,2.63
2023-03-10T00:34:02.614Z,3.35
2023-03-10T00:36:32.092Z,5.65
2023-03-10T00:39:02.046Z,1.65
2023-03-10T00:41:31.867Z,4.88
2023-03-10T00:44:02.683Z,2.47
2023-03-10T00:46:33.457Z,4.32
2023-03-10T00:49:02.509Z,2.30
2023-03-10T00:51:31.520Z,2.15
2023-03-10T00:54:01.937Z,2.22
2023-03-10T00:56:30.942Z,1.40
2023-03-10T00:59:00.694Z,1.58
2023-03-10T01:01:33.136Z,1.85
2023-03-10T01:04:03.415Z,3.00
2023-03-10T01:06:33.631Z,1.48
2023-03-10T01:09:02.587Z,3.33
2023-03-10T01:11:31.663Z,4.45
2023-03-10T01:14:01.940Z,3.20
2023-03-10T01:16:32.307Z,5.53
2023-03-10T01:19:01.450Z,2.67
2023-03-10T01:21:31.382Z,3.75
2023-03-10T01:24:01.994Z,3.10
2023-03-10T01:26:31.825Z,3.22
2023-03-10T01:29:00.819Z,1.90
2023-03-10T01:31:29.869Z,2.05
2023-03-10T01:34:00.403Z,1.95
2023-03-10T01:36:29.804Z,3.97
2023-03-10T01:39:00.326Z,3.00
2023-03-10T01:41:29.266Z,3.58
2023-03-10T01:43:58.680Z,2.95
2023-03-10T01:46:39.092Z,3.30
2023-03-10T01:49:20.540Z,2.40
2023-03-10T01:51:51.380Z,2.00
2023-03-10T01:54:22.753Z,1.58
2023-03-10T01:56:52.801Z,5.97
2023-03-10T01:59:22.563Z,4.22
2023-03-10T02:01:52.431Z,2.05
2023-03-10T02:04:29.850Z,3.47
2023-03-10T02:06:59.204Z,5.68
2023-03-10T02:09:28.707Z,5.85
2023-03-10T02:11:59.409Z,2.28
2023-03-10T02:14:28.431Z,5.13
2023-03-10T02:16:57.587Z,1.90
2023-03-10T02:19:38.519Z,2.75
2023-03-10T02:22:08.179Z,3.70
2023-03-10T02:24:41.191Z,3.60
2023-03-10T02:27:16.916Z,3.33
2023-03-10T02:29:58.811Z,1.65
2023-03-10T02:32:32.751Z,3.50
2023-03-10T02:35:02.870Z,2.40
2023-03-10T02:37:34.652Z,2.30
2023-03-10T02:40:05.489Z,2.95
2023-03-10T02:42:37.051Z,2.20
2023-03-10T02:45:06.408Z,3.20
2023-03-10T02:47:35.521Z,2.72
2023-03-10T02:50:04.506Z,4.53
2023-03-10T02:52:36.423Z,3.10
2023-03-10T02:57:35.615Z,3.92
2023-03-10T03:00:07.073Z,4.32
2023-03-10T03:02:36.243Z,1.02
2023-03-10T03:05:05.494Z,1.23
2023-03-10T03:07:35.563Z,0.85
2023-03-10T03:10:05.785Z,0.63
2023-03-10T03:12:36.122Z,2.03
2023-03-10T03:15:06.183Z,0.82
2023-03-10T03:17:35.916Z,1.13
2023-03-10T03:20:11.758Z,1.85
2023-03-10T03:22:42.405Z,1.90
2023-03-10T03:25:12.181Z,2.75
2023-03-10T03:27:42.905Z,0.95
2023-03-10T03:30:13.360Z,1.23
2023-03-10T03:32:42.732Z,1.75
2023-03-10T03:35:12.395Z,2.25
2023-03-10T03:37:41.709Z,1.15
2023-03-10T03:40:13.432Z,1.90
2023-03-10T03:42:48.784Z,3.75
2023-03-10T03:47:46.907Z,4.50
2023-03-10T03:50:17.675Z,2.40
2023-03-10T03:52:47.145Z,1.75
2023-03-10T03:55:19.361Z,1.73
2023-03-10T03:57:52.501Z,3.15
2023-03-10T04:00:23.728Z,1.98
2023-03-10T04:02:58.677Z,2.63
2023-03-10T04:05:32.084Z,4.32
2023-03-10T04:08:01.323Z,6.00
2023-03-10T04:10:31.962Z,4.18
2023-03-10T04:13:03.832Z,3.05
2023-03-10T04:15:33.769Z,4.65
2023-03-10T04:18:02.789Z,3.83
2023-03-10T04:20:32.203Z,2.95
2023-03-10T04:23:02.089Z,7.20
2023-03-10T04:25:35.074Z,7.93
2023-03-10T04:28:06.308Z,5.32
2023-03-10T04:30:35.692Z,4.25
2023-03-10T04:33:05.345Z,4.80
2023-03-10T04:35:36.126Z,4.57
2023-03-10T04:38:05.194Z,6.53
2023-03-10T04:40:36.119Z,7.35
2023-03-10T04:43:06.845Z,7.22
2023-03-10T04:45:38.310Z,6.15
2023-03-10T04:50:37.868Z,7.75
2023-03-10T04:53:06.866Z,10.38
2023-03-10T04:55:36.619Z,9.75
2023-03-10T04:58:08.464Z,8.27
2023-03-10T05:00:40.185Z,9.18
2023-03-10T05:03:12.263Z,8.70
2023-03-10T05:05:42.216Z,12.02
2023-03-10T05:08:11.332Z,14.32
2023-03-10T05:10:41.652Z,9.07
2023-03-10T05:13:12.911Z,8.27
2023-03-10T05:15:43.449Z,9.80
2023-03-10T05:18:13.365Z,13.15
2023-03-10T05:20:42.786Z,15.00
2023-03-10T05:23:11.852Z,18.10
2023-03-10T05:25:41.851Z,16.02
2023-03-10T05:28:12.343Z,19.35
2023-03-10T05:30:42.198Z,12.80
2023-03-10T05:33:11.576Z,14.23
2023-03-10T05:35:41.078Z,13.40
2023-03-10T05:38:10.601Z,14.75
2023-03-10T05:40:39.520Z,14.18
2023-03-10T05:43:08.699Z,13.32
2023-03-10T05:45:39.751Z,15.98
2023-03-10T05:48:09.040Z,10.65
2023-03-10T05:50:38.044Z,11.88
2023-03-10T05:53:06.995Z,10.52
2023-03-10T05:55:36.419Z,8.93
2023-03-10T05:58:05.585Z,8.38
2023-03-10T06:00:34.465Z,7.70
2023-03-10T06:03:05.457Z,9.60
2023-03-10T06:05:34.762Z,7.82
2023-03-10T06:08:04.945Z,9.13
2023-03-10T06:10:34.007Z,7.25
2023-03-10T06:13:02.984Z,6.20
2023-03-10T06:15:32.188Z,4.13
2023-03-10T06:18:01.366Z,7.05
2023-03-10T06:20:31.737Z,5.30
2023-03-10T06:23:00.747Z,7.95
2023-03-10T06:25:29.683Z,8.13
2023-03-10T06:27:58.559Z,6.72
2023-03-10T06:30:27.773Z,6.55
2023-03-10T06:32:56.735Z,6.90
2023-03-10T06:35:25.858Z,7.13
2023-03-10T06:37:56.142Z,7.70
2023-03-10T06:40:25.218Z,5.60
2023-03-10T06:42:54.240Z,5.35
2023-03-10T06:45:23.346Z,4.43
2023-03-10T06:47:52.207Z,4.57
2023-03-10T06:50:24.501Z,3.42
2023-03-10T06:52:53.666Z,4.57
2023-03-10T06:55:24.259Z,3.88
2023-03-10T06:57:53.398Z,5.20
2023-03-10T07:00:22.802Z,4.68
2023-03-10T07:02:52.316Z,4.18
2023-03-10T07:05:23.117Z,6.35
2023-03-10T07:07:52.124Z,5.63
2023-03-10T07:10:21.568Z,7.03
2023-03-10T07:12:55.309Z,3.05
2023-03-10T07:15:24.819Z,3.15
2023-03-10T07:17:56.177Z,2.50
2023-03-10T07:20:26.382Z,3.20
2023-03-10T07:22:55.484Z,2.85
2023-03-10T07:25:25.638Z,2.60
2023-03-10T07:27:55.916Z,1.67
2023-03-10T07:30:24.844Z,2.20
2023-03-10T07:32:54.130Z,1.30
2023-03-10T07:35:23.380Z,1.25
2023-03-10T07:37:52.371Z,1.88
2023-03-10T07:40:24.849Z,2.28
2023-03-10T07:42:54.822Z,1.65
2023-03-10T07:45:25.823Z,1.60
2023-03-10T07:47:55.437Z,1.92
2023-03-10T07:50:24.429Z,3.58
2023-03-10T07:52:54.984Z,3.95
2023-03-10T07:55:24.721Z,0.90
2023-03-10T07:57:56.847Z,0.98
2023-03-10T08:00:27.278Z,1.50
2023-03-10T08:02:56.358Z,1.00
2023-03-10T08:05:25.807Z,1.20
2023-03-10T08:07:54.965Z,1.13
2023-03-10T08:10:24.071Z,0.80
2023-03-10T08:12:53.245Z,1.85
2023-03-10T08:15:22.455Z,0.93
2023-03-10T08:17:53.242Z,1.13
2023-03-10T08:20:22.528Z,0.40
2023-03-10T08:22:51.659Z,0.52
2023-03-10T08:25:21.462Z,0.85
2023-03-10T08:27:51.526Z,0.85
2023-03-10T08:30:20.855Z,1.23
2023-03-10T08:32:49.977Z,1.00
2023-03-10T08:35:20.791Z,1.98
2023-03-10T08:37:49.950Z,0.57
2023-03-10T08:40:19.135Z,1.00
2023-03-10T08:42:48.768Z,0.73
2023-03-10T08:45:17.987Z,1.30
2023-03-10T08:47:47.021Z,0.40
2023-03-10T08:50:16.359Z,1.13
2023-03-10T08:52:46.630Z,1.45
2023-03-10T08:55:15.531Z,1.92
2023-03-10T08:57:44.534Z,1.10
2023-03-10T09:00:16.966Z,0.90
2023-03-10T09:02:46.384Z,2.78
2023-03-10T09:05:15.333Z,4.82
2023-03-10T09:07:44.240Z,2.45
2023-03-10T09:10:14.832Z,1.77
2023-03-10T09:12:43.729Z,1.92
2023-03-10T09:15:13.125Z,0.80
2023-03-10T09:17:42.872Z,2.50
2023-03-10T09:20:12.415Z,0.55
2023-03-10T09:22:41.352Z,2.53
2023-03-10T09:25:11.448Z,0.50
2023-03-10T09:27:41.705Z,0.65
2023-03-10T09:30:11.254Z,0.30
2023-03-10T09:32:40.337Z,0.55
2023-03-10T09:35:09.978Z,0.45
2023-03-10T09:37:38.966Z,0.45
2023-03-10T09:40:10.178Z,0.20
2023-03-10T09:42:41.427Z,0.98
2023-03-10T09:45:24.935Z,0.30
2023-03-10T09:48:18.767Z,0.22
2023-03-10T09:50:49.050Z,0.40
2023-03-10T09:53:23.682Z,0.30
2023-03-10T09:55:53.182Z,0.40
2023-03-10T09:58:28.737Z,0.20
2023-03-10T10:01:00.019Z,1.38
2023-03-10T10:03:35.292Z,0.52
2023-03-10T10:06:16.701Z,2.30
2023-03-10T10:08:54.814Z,1.48
2023-03-10T10:11:23.894Z,0.30
2023-03-10T10:13:53.467Z,0.68
2023-03-10T10:16:34.554Z,0.38
2023-03-10T10:19:07.802Z,0.30
2023-03-10T10:21:42.966Z,0.30
2023-03-10T10:24:12.245Z,0.13
2023-03-10T10:26:41.327Z,0.20
2023-03-10T10:29:15.874Z,0.20
2023-03-10T10:32:03.100Z,0.47
2023-03-10T10:34:32.498Z,0.30
2023-03-10T10:37:02.223Z,0.20
2023-03-10T10:39:34.679Z,0.20
2023-03-10T10:42:21.049Z,0.22
2023-03-10T10:44:53.150Z,0.70
2023-03-10T10:47:31.655Z,1.88
2023-03-10T10:50:11.215Z,0.20
2023-03-10T10:52:40.243Z,0.95
2023-03-10T10:55:23.809Z,0.20
2023-03-10T10:57:56.474Z,0.20
2023-03-10T11:00:27.136Z,0.38
2023-03-10T11:02:57.602Z,0.20
2023-03-10T11:07:58.504Z,0.17
2023-03-10T11:10:29.492Z,0.22
2023-03-10T11:13:01.551Z,0.53
2023-03-10T11:15:32.863Z,0.20
2023-03-10T11:18:05.709Z,0.20
2023-03-10T11:20:40.253Z,2.38
2023-03-10T11:23:14.090Z,0.25
2023-03-10T11:25:47.533Z,0.50
2023-03-10T11:28:23.945Z,0.30
2023-03-10T11:31:02.250Z,0.25
2023-03-10T11:33:35.621Z,0.20
2023-03-10T11:36:12.651Z,0.35
2023-03-10T11:38:43.497Z,2.58
2023-03-10T11:41:15.152Z,0.20
2023-03-10T11:43:50.440Z,0.70
2023-03-10T11:46:25.128Z,0.65
2023-03-10T11:49:03.491Z,0.57
2023-03-10T11:51:35.604Z,0.20
2023-03-10T11:54:07.219Z,0.30
2023-03-10T11:56:36.337Z,1.70
2023-03-10T11:59:10.778Z,0.95
2023-03-10T12:01:41.955Z,0.43
2023-03-10T12:04:14.875Z,0.43
2023-03-10T12:06:45.853Z,0.40
2023-03-10T12:09:19.947Z,0.40
2023-03-10T12:11:50.315Z,0.90
2023-03-10T12:14:19.350Z,1.50
2023-03-10T12:16:48.928Z,0.38
2023-03-10T12:19:19.723Z,0.70
2023-03-10T12:22:09.272Z,1.80
2023-03-10T12:24:45.534Z,2.65
2023-03-10T12:27:14.986Z,3.53
2023-03-10T12:29:44.842Z,3.03
2023-03-10T12:32:33.638Z,2.80
2023-03-10T12:35:21.788Z,2.38
2023-03-10T12:37:52.504Z,1.40
2023-03-10T12:40:40.329Z,1.65
2023-03-10T12:43:24.333Z,3.35
2023-03-10T12:45:53.508Z,1.65
2023-03-10T12:48:23.464Z,0.93
2023-03-10T12:50:56.914Z,1.55
2023-03-10T12:53:31.142Z,1.00
2023-03-10T12:56:18.695Z,0.75
2023-03-10T12:58:49.133Z,0.25
2023-03-10T13:01:21.332Z,0.77
2023-03-10T13:03:52.867Z,0.65
2023-03-10T13:06:23.487Z,0.50
2023-03-10T13:08:55.276Z,0.55
2023-03-10T13:13:55.055Z,1.67
2023-03-10T13:16:24.226Z,1.75
2023-03-10T13:18:54.581Z,1.08
2023-03-10T13:21:25.085Z,0.73
2023-03-10T13:23:55.568Z,0.43
2023-03-10T13:26:26.916Z,0.57
2023-03-10T13:28:57.093Z,0.50
2023-03-10T13:31:27.161Z,1.25
2023-03-10T13:33:56.865Z,0.95
2023-03-10T13:36:32.281Z,0.57
2023-03-10T13:39:03.517Z,1.27
2023-03-10T13:41:37.441Z,0.77
2023-03-10T13:44:06.753Z,0.40
2023-03-10T13:46:36.178Z,0.55
2023-03-10T13:49:07.599Z,0.43
2023-03-10T13:51:37.547Z,0.60
2023-03-10T13:54:20.378Z,1.17
2023-03-10T13:56:50.645Z,0.73
2023-03-10T13:59:21.828Z,0.80
2023-03-10T14:01:53.570Z,0.68
2023-03-10T14:04:37.935Z,1.02
2023-03-10T14:07:10.572Z,0.90
2023-03-10T14:09:41.343Z,0.90
2023-03-10T14:12:10.638Z,1.50
2023-03-10T14:14:41.889Z,2.40
2023-03-10T14:17:31.025Z,3.33
2023-03-10T14:20:00.341Z,2.80
2023-03-10T14:22:35.369Z,3.03
2023-03-10T14:25:09.658Z,4.15
2023-03-10T14:27:42.053Z,2.25
2023-03-10T14:30:22.802Z,0.95
2023-03-10T14:32:52.127Z,0.95
2023-03-10T14:35:21.736Z,0.80
2023-03-10T14:37:50.898Z,1.20
2023-03-10T14:40:22.068Z,1.55
2023-03-10T14:42:52.339Z,0.60
2023-03-10T14:45:29.524Z,1.17
2023-03-10T14:48:00.046Z,0.90
2023-03-10T14:50:29.720Z,1.05
2023-03-10T14:52:58.942Z,1.42
2023-03-10T14:55:29.543Z,0.95
2023-03-10T14:58:00.554Z,0.70
2023-03-10T15:00:29.622Z,0.70
2023-03-10T15:02:59.022Z,1.17
2023-03-10T15:05:41.397Z,0.65
2023-03-10T15:08:16.318Z,1.10
2023-03-10T15:10:48.272Z,0.88
2023-03-10T15:13:18.517Z,1.38
2023-03-10T15:15:48.261Z,2.20
2023-03-10T15:18:18.037Z,0.77
2023-03-10T15:20:47.267Z,0.70
2023-03-10T15:23:19.379Z,2.92
2023-03-10T15:25:51.926Z,1.73
2023-03-10T15:28:21.612Z,4.00
2023-03-10T15:30:53.868Z,0.65
2023-03-10T15:33:23.074Z,0.88
2023-03-10T15:35:53.302Z,2.28
2023-03-10T15:38:23.204Z,1.48
2023-03-10T15:40:54.049Z,2.45
2023-03-10T15:43:23.313Z,1.88
2023-03-10T15:45:52.379Z,2.03
2023-03-10T15:48:21.360Z,3.45
2023-03-10T15:50:50.383Z,1.05
2023-03-10T15:53:19.742Z,1.77
2023-03-10T15:55:52.270Z,2.53
2023-03-10T15:58:22.611Z,1.90
2023-03-10T16:00:51.893Z,0.68
2023-03-10T16:03:21.205Z,2.65
2023-03-10T16:05:50.257Z,1.98
2023-03-10T16:08:20.039Z,1.75
2023-03-10T16:10:53.216Z,3.03
2023-03-10T16:13:25.101Z,2.15
2023-03-10T16:15:54.886Z,2.45
2023-03-10T16:18:23.886Z,2.25
2023-03-10T16:20:59.364Z,1.73
2023-03-10T16:23:28.680Z,1.77
2023-03-10T16:26:05.286Z,2.10
2023-03-10T16:28:35.875Z,2.13
2023-03-10T16:31:05.475Z,2.17
2023-03-10T16:33:34.793Z,1.02
2023-03-10T16:36:04.922Z,2.17
2023-03-10T16:38:34.122Z,1.48
2023-03-10T16:41:03.610Z,1.48
2023-03-10T16:43:33.784Z,1.95
2023-03-10T16:46:09.418Z,2.00
2023-03-10T16:48:42.160Z,1.60
2023-03-10T16:51:22.513Z,2.33
2023-03-10T16:53:52.069Z,0.45
2023-03-10T16:56:21.304Z,0.77
2023-03-10T16:58:50.336Z,1.38
2023-03-10T17:01:23.939Z,1.65
2023-03-10T17:03:53.218Z,3.67
2023-03-10T17:06:23.442Z,3.80
2023-03-10T17:08:52.655Z,1.92
2023-03-10T17:11:23.365Z,2.58
2023-03-10T17:13:53.995Z,0.82
2023-03-10T17:16:28.205Z,3.17
2023-03-10T17:18:57.758Z,2.63
2023-03-10T17:21:27.459Z,2.28
2023-03-10T17:23:56.848Z,2.15
2023-03-10T17:26:26.607Z,3.92
2023-03-10T17:28:55.613Z,2.00
2023-03-10T17:31:29.724Z,3.58
2023-03-10T17:34:00.210Z,1.30
2023-03-10T17:36:29.289Z,1.92
2023-03-10T17:38:59.273Z,2.53
2023-03-10T17:41:29.369Z,1.70
2023-03-10T17:43:59.048Z,2.38
2023-03-10T17:46:30.492Z,2.45
2023-03-10T17:49:00.202Z,1.70
2023-03-10T17:51:30.442Z,2.25
2023-03-10T17:54:01.100Z,18.30
2023-03-10T17:56:30.705Z,14.73
2023-03-10T17:59:00.860Z,17.25
2023-03-10T18:01:33.556Z,14.45
2023-03-10T18:04:03.406Z,4.15
2023-03-10T18:06:33.955Z,2.80
2023-03-10T18:09:04.576Z,12.23
2023-03-10T18:11:34.104Z,16.75
2023-03-10T18:14:04.000Z,13.52
2023-03-10T18:16:35.319Z,8.38
2023-03-10T18:19:05.476Z,5.03
2023-03-10T18:21:34.473Z,4.20
2023-03-10T18:24:03.957Z,5.38
2023-03-10T18:26:33.752Z,6.63
2023-03-10T18:29:04.623Z,4.78
2023-03-10T18:31:35.849Z,6.25
2023-03-10T18:34:05.087Z,6.43
2023-03-10T18:36:35.563Z,9.50
2023-03-10T18:39:05.609Z,6.18
2023-03-10T18:41:37.313Z,6.63
2023-03-10T18:46:36.745Z,5.10
2023-03-10T18:49:06.286Z,9.95
2023-03-10T18:51:35.251Z,4.75
2023-03-10T18:54:05.876Z,2.97
2023-03-10T18:56:36.318Z,4.90
2023-03-10T18:59:05.273Z,6.40
2023-03-10T19:01:34.331Z,13.07
2023-03-10T19:04:04.913Z,34.75
2023-03-10T19:06:34.215Z,15.70
2023-03-10T19:09:03.975Z,6.50
2023-03-10T19:11:36.466Z,13.20
2023-03-10T19:14:06.535Z,7.22
2023-03-10T19:16:36.648Z,5.72
2023-03-10T19:19:07.062Z,4.55
2023-03-10T19:21:36.234Z,6.40
2023-03-10T19:24:05.578Z,5.25
2023-03-10T19:26:34.510Z,8.13
2023-03-10T19:29:03.593Z,3.92
2023-03-10T19:31:32.622Z,4.70
2023-03-10T19:34:01.514Z,7.68
2023-03-10T19:36:31.932Z,6.93
2023-03-10T19:39:00.903Z,7.78
2023-03-10T19:41:29.981Z,8.63
2023-03-10T19:43:59.941Z,6.40
2023-03-10T19:46:29.002Z,8.80
2023-03-10T19:48:57.960Z,13.77
2023-03-10T19:51:27.848Z,9.43
2023-03-10T19:53:58.882Z,8.05
2023-03-10T19:56:27.951Z,13.57
2023-03-10T19:58:58.398Z,6.93
2023-03-10T20:01:28.218Z,14.30
2023-03-10T20:03:58.171Z,24.67
2023-03-10T20:06:27.534Z,20.50
2023-03-10T20:08:58.278Z,13.80
2023-03-10T20:11:28.818Z,16.50
2023-03-10T20:13:57.785Z,15.00
2023-03-10T20:16:27.899Z,17.60
2023-03-10T20:18:57.390Z,10.05
2023-03-10T20:21:27.231Z,12.45
2023-03-10T20:23:58.050Z,10.32
2023-03-10T20:26:27.211Z,11.97
2023-03-10T20:28:56.363Z,11.40
2023-03-10T20:31:26.168Z,9.75
2023-03-10T20:33:55.192Z,14.20
2023-03-10T20:36:24.152Z,12.55
2023-03-10T20:38:53.127Z,23.25
2023-03-10T20:41:23.469Z,24.73
2023-03-10T20:43:53.878Z,18.55
2023-03-10T20:46:23.516Z,16.95
2023-03-10T20:48:52.502Z,14.57
2023-03-10T20:51:22.673Z,15.20
2023-03-10T20:53:52.526Z,20.52
2023-03-10T20:56:25.017Z,16.77
2023-03-10T20:58:59.302Z,16.27
2023-03-10T21:01:28.811Z,16.35
2023-03-10T21:03:58.711Z,17.48
2023-03-10T21:06:28.481Z,16.40
2023-03-10T21:08:57.534Z,14.60
2023-03-10T21:11:28.345Z,11.10
2023-03-10T21:13:57.487Z,13.00
2023-03-10T21:16:26.477Z,7.20
2023-03-10T21:18:55.582Z,9.00
2023-03-10T21:21:24.476Z,13.50
2023-03-10T21:23:53.477Z,13.30
2023-03-10T21:26:23.035Z,12.98
2023-03-10T21:28:53.407Z,9.57
2023-03-10T21:31:22.557Z,8.20
2023-03-10T21:33:51.667Z,8.80
2023-03-10T21:36:22.317Z,8.15
2023-03-10T21:38:51.997Z,13.13
2023-03-10T21:41:22.166Z,7.05
2023-03-10T21:43:51.499Z,9.82
2023-03-10T21:46:22.430Z,9.73
2023-03-10T21:48:52.271Z,15.27
2023-03-10T21:51:22.997Z,11.57
2023-03-10T21:53:53.585Z,13.13
2023-03-10T21:56:25.762Z,10.77
2023-03-10T21:58:54.880Z,11.30
2023-03-10T22:01:25.380Z,10.27
2023-03-10T22:03:54.576Z,14.18
2023-03-10T22:06:23.947Z,12.10
2023-03-10T22:08:53.324Z,12.77
2023-03-10T22:11:22.415Z,11.20
2023-03-10T22:13:51.391Z,9.60
2023-03-10T22:16:20.857Z,12.40
2023-03-10T22:18:51.461Z,9.27
2023-03-10T22:21:20.705Z,9.93
2023-03-10T22:23:49.820Z,6.50
2023-03-10T22:26:19.718Z,9.75
2023-03-10T22:28:48.877Z,6.82
2023-03-10T22:31:18.279Z,8.35
2023-03-10T22:33:47.520Z,9.43
2023-03-10T22:36:18.929Z,10.93
2023-03-10T22:38:48.048Z,10.40
2023-03-10T22:41:17.238Z,9.23
2023-03-10T22:43:46.348Z,13.02
2023-03-10T22:46:17.092Z,12.43
2023-03-10T22:48:46.407Z,9.25
2023-03-10T22:51:17.277Z,10.05
2023-03-10T22:53:47.902Z,9.00
2023-03-10T22:56:17.144Z,9.55
2023-03-10T22:58:46.467Z,14.30
2023-03-10T23:01:16.229Z,12.63
2023-03-10T23:03:45.415Z,8.77
2023-03-10T23:06:15.605Z,9.02
2023-03-10T23:08:47.056Z,11.70
2023-03-10T23:11:18.293Z,10.10
2023-03-10T23:13:47.488Z,8.50
2023-03-10T23:16:18.123Z,8.07
2023-03-10T23:18:47.688Z,7.93
2023-03-10T23:21:16.729Z,11.18
2023-03-10T23:23:47.938Z,8.30
2023-03-10T23:26:18.396Z,8.15
2023-03-10T23:28:47.786Z,8.98
2023-03-10T23:31:17.204Z,6.50
2023-03-10T23:33:49.552Z,7.72
2023-03-10T23:36:19.045Z,9.88
2023-03-10T23:38:49.539Z,7.60
2023-03-10T23:41:20.200Z,9.35
2023-03-10T23:43:51.616Z,8.15
2023-03-10T23:46:21.984Z,10.68
2023-03-10T23:48:52.474Z,14.40
2023-03-10T23:51:21.583Z,8.95
2023-03-10T23:53:50.679Z,6.53
2023-03-10T23:56:21.024Z,12.60
2023-03-10T23:58:50.534Z,12.55
